world map with SPJJ marked

SPJJ - Airport

This information may not be accurate or current and is not valid for navigation or flight planning. No warranty of fitness for any purpose is made or implied.

flag of Junínflag of Perú

Donate via PayPal

Additional information is available on the NEW Great Circle Mapper

Location
City:  Jauja, Junín, Perú
Name:Francisco Carle Airport
ICAO / IATA:SPJJ / JAU

Details
Type:Airport (Aerodrome, Airfield)
Use:Public/Civil
Latitude:11°46'49"S (-11.780277)
Longitude:75°28'07"W (-75.468610)
Elevation:11034 ft (3363 m)
Runways:1
Longest:9219 × 148 ft (2810 × 45 m)

Time
Timezone:UTC+29:08 (DST+31:08)
Local Time:

Weather
METAR:SPJJ  032019Z VRB06KT 9999 SCT040TCU BKN100 17/11 Q1028
TAF:SPJJ  (expired)

Related Locations
Nearby:
Farthest:KZC: 12448 mi / 20032 km
Kampong Chhnang [Kampong Chhnang Airport], 4, KH

Find:

   beyond  
but within

Other Information
Maps:
Sources:

  


 


Great Circle Mapper   Great Circle Mapper
Great Circle Mapper FAQ   Great Circle Mapper FAQ
  Karl's Home Page
KLS²   KLS² Home
   GC on Facebook
Airlines of the World   Airlines of the World
Donate via PayPal


Copyright © 2004-2022, Karl L. Swartz. All rights reserved.
All trademarks mentioned herein belong to their respective owners.

Please see credits for attribution and copyright information.

Karl Swartz <karl@kls2.com>
  Powered by FreeBSD
Valid HTML 4.01!
Labeled with ICRA
hCard Microformat
Geo Microformat